Elko, NV

3:28 PM PDT on August 30, 2014 (GMT -0700)
APRSWXNET Spring Creek NV US | Change Station
CLOSE
Current Station
Personal Weather Station
Location: Lamoille, NV
Elevation: 5469 ft
Nearby Weather Stations

Elev 5469 ft 40.73 °N, 115.65 °W | Updated 25 minutes ago

Partly Cloudy
Partly Cloudy
82 °F
Feels Like 80 °F
N
4
Wind Variable Wind from WSW
Gusts 0.0 mph

Today
High -- | Low -- °F
--% Chance of Precip.
Yesterday
High -- | Low -- °F
Precip. -- in
6:07 AM 7:18 PM
Waxing Crescent, 25% visible
Pressure 29.77 in
Visibility 10.0 miles
Clouds Few 11000 ft
Heat Index 80 °F
Dew Point 33 °F
Humidity 17%
Rainfall -999.00 in
Snow Depth Not available.
UV 7 out of 12
Pollen 8.90 out of 12
Air Quality Not available.
Flu Activity Not available.
METAR KEKO 302156Z AUTO 26014G20KT 220V300 10SM FEW110 28/M01 A2993 RMK AO2 PK WND 27028/2136 SLP079 T02831011

More Conditions Fewer Conditions

Pressure 29.77 in
Visibility 10.0 miles
Clouds Few 11000 ft
Heat Index 80 °F
Dew Point 33 °F
Humidity 17%
Rainfall -999.00 in
Snow Depth Not available.
UV 7 out of 12
Pollen 8.90 out of 12
Air Quality Not available.
Flu Activity Not available.
METAR KEKO 302156Z AUTO 26014G20KT 220V300 10SM FEW110 28/M01 A2993 RMK AO2 PK WND 27028/2136 SLP079 T02831011

More Conditions Fewer Conditions

10-Day Weather Forecast

Almanac

Astronomy

Aug. 30, 2014 Rise Set
Actual Time 6:07 AM PDT 7:18 PM PDT
Civil Twilight 5:39 AM PDT 7:46 PM PDT
Nautical Twilight 5:05 AM PDT 8:20 PM PDT
Astronomical Twilight 4:30 AM PDT 8:55 PM PDT
Moon 11:01 AM PDT 9:53 PM PDT
Length of Visible Light 14h 06m
Length of Day
13h 10m
Tomorrow will be 2m 35s shorter.
Waxing Crescent, 25% of the Moon is Illuminated
Today
Waxing Crescent
Sep 2
First Quarter
Sep 8
Full
Sep 15
Last Quarter
Sep 24
New

Today's Extremes

State Highs State Lows

Community

WunderPhotos

Upload Photos

1,748,657 photos uploaded!

WunderBlogs® & News

Nearby

Snow Depth

Station Depth Elevation
Green Mountain 0 in 8000 ft
Taylor Canyon 1 in 6200 ft
Jacks Peak 3 in 8420 ft
Jack Creek Upper 0 in 7250 ft
Bear Creek 0 in 7800 ft

Earthquake Activity

City Distance Mag. Time & Date
No recent earthquake activity has been reported nearby.
Minimum magnitude displayed is 2.5.

Coastal Water Temperatures

Place Temperature
No Stations Reporting

Nearby Weather Stations